sensor_id;sensor_type;location;lat;lon;timestamp;P1;durP1;ratioP1;P2;durP2;ratioP2
53479;SDS011;56133;51.012;-1.648;2022-07-10T00:01:54;3.30;;;1.13;;
53479;SDS011;56133;51.012;-1.648;2022-07-10T00:04:20;2.03;;;0.90;;
53479;SDS011;56133;51.012;-1.648;2022-07-10T00:06:45;3.53;;;1.08;;
53479;SDS011;56133;51.012;-1.648;2022-07-10T00:09:12;3.17;;;1.25;;
53479;SDS011;56133;51.012;-1.648;2022-07-10T00:11:40;3.83;;;1.52;;
53479;SDS011;56133;51.012;-1.648;2022-07-10T00:14:06;2.67;;;1.33;;
53479;SDS011;56133;51.012;-1.648;2022-07-10T00:16:32;2.55;;;1.20;;
53479;SDS011;56133;51.012;-1.648;2022-07-10T00:18:57;2.80;;;1.10;;
53479;SDS011;56133;51.012;-1.648;2022-07-10T00:21:23;1.42;;;1.00;;
53479;SDS011;56133;51.012;-1.648;2022-07-10T00:23:48;3.47;;;1.02;;
53479;SDS011;56133;51.012;-1.648;2022-07-10T00:26:14;3.50;;;1.20;;
53479;SDS011;56133;51.012;-1.648;2022-07-10T00:28:39;2.50;;;1.10;;
53479;SDS011;56133;51.012;-1.648;2022-07-10T00:31:05;3.50;;;1.23;;
53479;SDS011;56133;51.012;-1.648;2022-07-10T00:33:30;2.88;;;1.33;;
53479;SDS011;56133;51.012;-1.648;2022-07-10T00:35:57;1.83;;;1.30;;
53479;SDS011;56133;51.012;-1.648;2022-07-10T00:38:25;2.35;;;1.10;;
53479;SDS011;56133;51.012;-1.648;2022-07-10T00:40:51;1.92;;;1.25;;
53479;SDS011;56133;51.012;-1.648;2022-07-10T00:43:16;2.80;;;1.42;;
53479;SDS011;56133;51.012;-1.648;2022-07-10T00:45:42;2.85;;;1.40;;
53479;SDS011;56133;51.012;-1.648;2022-07-10T00:48:07;3.20;;;1.50;;
53479;SDS011;56133;51.012;-1.648;2022-07-10T00:50:37;4.47;;;1.70;;
53479;SDS011;56133;51.012;-1.648;2022-07-10T00:53:03;2.20;;;1.30;;
53479;SDS011;56133;51.012;-1.648;2022-07-10T00:55:30;1.80;;;1.50;;
53479;SDS011;56133;51.012;-1.648;2022-07-10T00:57:58;3.28;;;1.63;;
53479;SDS011;56133;51.012;-1.648;2022-07-10T01:00:24;3.28;;;1.70;;
53479;SDS011;56133;51.012;-1.648;2022-07-10T01:02:51;2.85;;;1.65;;
53479;SDS011;56133;51.012;-1.648;2022-07-10T01:05:17;2.25;;;1.83;;
53479;SDS011;56133;51.012;-1.648;2022-07-10T01:07:43;2.90;;;2.03;;
53479;SDS011;56133;51.012;-1.648;2022-07-10T01:10:09;2.28;;;1.67;;
53479;SDS011;56133;51.012;-1.648;2022-07-10T01:12:35;2.13;;;1.92;;
53479;SDS011;56133;51.012;-1.648;2022-07-10T01:15:01;4.43;;;1.90;;
53479;SDS011;56133;51.012;-1.648;2022-07-10T01:17:26;2.83;;;1.77;;
53479;SDS011;56133;51.012;-1.648;2022-07-10T01:19:54;3.53;;;1.90;;
53479;SDS011;56133;51.012;-1.648;2022-07-10T01:22:20;3.83;;;1.90;;
53479;SDS011;56133;51.012;-1.648;2022-07-10T01:24:45;2.90;;;1.90;;
53479;SDS011;56133;51.012;-1.648;2022-07-10T01:27:11;2.63;;;1.80;;
53479;SDS011;56133;51.012;-1.648;2022-07-10T01:29:36;3.42;;;2.00;;
53479;SDS011;56133;51.012;-1.648;2022-07-10T01:32:02;5.85;;;2.20;;
53479;SDS011;56133;51.012;-1.648;2022-07-10T01:34:28;2.88;;;1.80;;
53479;SDS011;56133;51.012;-1.648;2022-07-10T01:36:54;3.60;;;1.92;;
53479;SDS011;56133;51.012;-1.648;2022-07-10T01:39:20;3.65;;;1.67;;
53479;SDS011;56133;51.012;-1.648;2022-07-10T01:41:45;2.17;;;1.90;;
53479;SDS011;56133;51.012;-1.648;2022-07-10T01:44:10;2.25;;;1.60;;
53479;SDS011;56133;51.012;-1.648;2022-07-10T01:46:42;2.78;;;1.60;;
53479;SDS011;56133;51.012;-1.648;2022-07-10T01:49:11;3.17;;;1.80;;
53479;SDS011;56133;51.012;-1.648;2022-07-10T01:51:37;2.88;;;1.60;;
53479;SDS011;56133;51.012;-1.648;2022-07-10T01:54:02;4.57;;;1.83;;
53479;SDS011;56133;51.012;-1.648;2022-07-10T01:56:28;2.38;;;1.73;;
53479;SDS011;56133;51.012;-1.648;2022-07-10T01:58:53;4.32;;;2.03;;
53479;SDS011;56133;51.012;-1.648;2022-07-10T02:01:19;2.85;;;1.85;;
53479;SDS011;56133;51.012;-1.648;2022-07-10T02:03:44;3.08;;;1.80;;
53479;SDS011;56133;51.012;-1.648;2022-07-10T02:06:28;3.90;;;2.03;;
53479;SDS011;56133;51.012;-1.648;2022-07-10T02:08:54;3.33;;;1.95;;
53479;SDS011;56133;51.012;-1.648;2022-07-10T02:11:19;2.92;;;1.92;;
53479;SDS011;56133;51.012;-1.648;2022-07-10T02:13:45;2.08;;;1.88;;
53479;SDS011;56133;51.012;-1.648;2022-07-10T02:16:10;2.75;;;2.08;;
53479;SDS011;56133;51.012;-1.648;2022-07-10T02:18:36;3.22;;;1.70;;
53479;SDS011;56133;51.012;-1.648;2022-07-10T02:21:03;2.50;;;1.88;;
53479;SDS011;56133;51.012;-1.648;2022-07-10T02:23:28;4.30;;;2.00;;
53479;SDS011;56133;51.012;-1.648;2022-07-10T02:25:54;3.53;;;1.83;;
53479;SDS011;56133;51.012;-1.648;2022-07-10T02:28:19;4.70;;;2.10;;
53479;SDS011;56133;51.012;-1.648;2022-07-10T02:30:44;2.35;;;2.00;;
53479;SDS011;56133;51.012;-1.648;2022-07-10T02:33:10;3.30;;;2.28;;
53479;SDS011;56133;51.012;-1.648;2022-07-10T02:35:35;2.65;;;2.05;;
53479;SDS011;56133;51.012;-1.648;2022-07-10T02:38:01;3.45;;;2.30;;
53479;SDS011;56133;51.012;-1.648;2022-07-10T02:40:26;2.50;;;2.10;;
53479;SDS011;56133;51.012;-1.648;2022-07-10T02:42:52;4.35;;;2.38;;
53479;SDS011;56133;51.012;-1.648;2022-07-10T02:45:17;2.17;;;1.98;;
53479;SDS011;56133;51.012;-1.648;2022-07-10T02:47:42;3.40;;;1.77;;
53479;SDS011;56133;51.012;-1.648;2022-07-10T02:50:08;3.00;;;1.88;;
53479;SDS011;56133;51.012;-1.648;2022-07-10T02:52:34;5.00;;;2.25;;
53479;SDS011;56133;51.012;-1.648;2022-07-10T02:54:59;3.63;;;2.45;;
53479;SDS011;56133;51.012;-1.648;2022-07-10T02:57:25;3.05;;;2.17;;
53479;SDS011;56133;51.012;-1.648;2022-07-10T02:59:51;5.45;;;2.78;;
53479;SDS011;56133;51.012;-1.648;2022-07-10T03:02:16;6.90;;;4.70;;
53479;SDS011;56133;51.012;-1.648;2022-07-10T03:04:42;7.30;;;4.82;;
53479;SDS011;56133;51.012;-1.648;2022-07-10T03:07:07;6.03;;;5.40;;
53479;SDS011;56133;51.012;-1.648;2022-07-10T03:09:33;7.15;;;5.65;;
53479;SDS011;56133;51.012;-1.648;2022-07-10T03:11:59;8.10;;;6.07;;
53479;SDS011;56133;51.012;-1.648;2022-07-10T03:14:25;7.20;;;5.45;;
53479;SDS011;56133;51.012;-1.648;2022-07-10T03:16:50;6.40;;;5.18;;
53479;SDS011;56133;51.012;-1.648;2022-07-10T03:19:16;8.27;;;6.50;;
53479;SDS011;56133;51.012;-1.648;2022-07-10T03:21:41;8.45;;;7.20;;
53479;SDS011;56133;51.012;-1.648;2022-07-10T03:24:07;10.20;;;8.43;;
53479;SDS011;56133;51.012;-1.648;2022-07-10T03:26:32;11.05;;;9.10;;
53479;SDS011;56133;51.012;-1.648;2022-07-10T03:28:58;13.38;;;11.15;;
53479;SDS011;56133;51.012;-1.648;2022-07-10T03:31:23;14.43;;;11.50;;
53479;SDS011;56133;51.012;-1.648;2022-07-10T03:33:48;18.42;;;14.13;;
53479;SDS011;56133;51.012;-1.648;2022-07-10T03:36:14;17.65;;;14.65;;
53479;SDS011;56133;51.012;-1.648;2022-07-10T03:38:40;19.27;;;16.73;;
53479;SDS011;56133;51.012;-1.648;2022-07-10T03:41:06;22.02;;;18.50;;
53479;SDS011;56133;51.012;-1.648;2022-07-10T03:43:31;20.83;;;16.95;;
53479;SDS011;56133;51.012;-1.648;2022-07-10T03:45:57;17.30;;;14.73;;
53479;SDS011;56133;51.012;-1.648;2022-07-10T03:48:23;11.57;;;9.77;;
53479;SDS011;56133;51.012;-1.648;2022-07-10T03:50:49;12.85;;;8.75;;
53479;SDS011;56133;51.012;-1.648;2022-07-10T03:53:15;22.35;;;18.83;;
53479;SDS011;56133;51.012;-1.648;2022-07-10T03:55:41;21.20;;;16.27;;
53479;SDS011;56133;51.012;-1.648;2022-07-10T03:58:07;18.42;;;14.57;;
53479;SDS011;56133;51.012;-1.648;2022-07-10T04:00:32;16.20;;;12.98;;
53479;SDS011;56133;51.012;-1.648;2022-07-10T04:02:59;12.23;;;10.52;;
53479;SDS011;56133;51.012;-1.648;2022-07-10T04:05:26;10.88;;;8.85;;
53479;SDS011;56133;51.012;-1.648;2022-07-10T04:07:53;14.20;;;10.20;;
53479;SDS011;56133;51.012;-1.648;2022-07-10T04:10:19;13.52;;;11.43;;
53479;SDS011;56133;51.012;-1.648;2022-07-10T04:12:46;12.88;;;8.95;;
53479;SDS011;56133;51.012;-1.648;2022-07-10T04:15:11;11.75;;;9.70;;
53479;SDS011;56133;51.012;-1.648;2022-07-10T04:17:37;11.40;;;9.88;;
53479;SDS011;56133;51.012;-1.648;2022-07-10T04:20:03;11.43;;;8.63;;
53479;SDS011;56133;51.012;-1.648;2022-07-10T04:22:28;9.68;;;6.25;;
53479;SDS011;56133;51.012;-1.648;2022-07-10T04:24:54;7.85;;;6.07;;
53479;SDS011;56133;51.012;-1.648;2022-07-10T04:27:19;9.35;;;7.97;;
53479;SDS011;56133;51.012;-1.648;2022-07-10T04:29:45;12.35;;;9.70;;
53479;SDS011;56133;51.012;-1.648;2022-07-10T04:32:11;9.45;;;7.97;;
53479;SDS011;56133;51.012;-1.648;2022-07-10T04:34:36;11.38;;;9.35;;
53479;SDS011;56133;51.012;-1.648;2022-07-10T04:37:02;11.80;;;8.95;;
53479;SDS011;56133;51.012;-1.648;2022-07-10T04:39:28;10.27;;;9.18;;
53479;SDS011;56133;51.012;-1.648;2022-07-10T04:41:53;11.02;;;8.77;;
53479;SDS011;56133;51.012;-1.648;2022-07-10T04:44:19;12.40;;;9.40;;
53479;SDS011;56133;51.012;-1.648;2022-07-10T04:46:44;11.63;;;8.50;;
53479;SDS011;56133;51.012;-1.648;2022-07-10T04:49:10;13.73;;;10.30;;
53479;SDS011;56133;51.012;-1.648;2022-07-10T04:51:35;12.48;;;9.25;;
53479;SDS011;56133;51.012;-1.648;2022-07-10T04:54:01;13.27;;;9.27;;
53479;SDS011;56133;51.012;-1.648;2022-07-10T04:56:26;13.68;;;9.82;;
53479;SDS011;56133;51.012;-1.648;2022-07-10T04:58:52;16.95;;;12.93;;
53479;SDS011;56133;51.012;-1.648;2022-07-10T05:01:17;14.63;;;11.15;;
53479;SDS011;56133;51.012;-1.648;2022-07-10T05:03:43;13.23;;;9.95;;
53479;SDS011;56133;51.012;-1.648;2022-07-10T05:06:08;14.88;;;11.15;;
53479;SDS011;56133;51.012;-1.648;2022-07-10T05:08:33;14.60;;;10.63;;
53479;SDS011;56133;51.012;-1.648;2022-07-10T05:10:59;14.77;;;10.50;;
53479;SDS011;56133;51.012;-1.648;2022-07-10T05:13:24;12.73;;;9.48;;
53479;SDS011;56133;51.012;-1.648;2022-07-10T05:15:50;12.60;;;9.60;;
53479;SDS011;56133;51.012;-1.648;2022-07-10T05:18:15;10.32;;;8.40;;
53479;SDS011;56133;51.012;-1.648;2022-07-10T05:20:41;9.65;;;7.50;;
53479;SDS011;56133;51.012;-1.648;2022-07-10T05:23:08;10.63;;;7.78;;
53479;SDS011;56133;51.012;-1.648;2022-07-10T05:25:34;11.05;;;8.05;;
53479;SDS011;56133;51.012;-1.648;2022-07-10T05:28:02;9.57;;;6.97;;
53479;SDS011;56133;51.012;-1.648;2022-07-10T05:30:28;10.65;;;6.55;;
53479;SDS011;56133;51.012;-1.648;2022-07-10T05:32:53;9.98;;;6.20;;
53479;SDS011;56133;51.012;-1.648;2022-07-10T05:35:19;9.60;;;6.47;;
53479;SDS011;56133;51.012;-1.648;2022-07-10T05:37:44;10.35;;;7.20;;
53479;SDS011;56133;51.012;-1.648;2022-07-10T05:40:10;9.02;;;6.57;;
53479;SDS011;56133;51.012;-1.648;2022-07-10T05:42:37;8.73;;;6.60;;
53479;SDS011;56133;51.012;-1.648;2022-07-10T05:45:02;13.70;;;7.38;;
53479;SDS011;56133;51.012;-1.648;2022-07-10T05:47:29;13.77;;;9.05;;
53479;SDS011;56133;51.012;-1.648;2022-07-10T05:49:55;12.88;;;7.82;;
53479;SDS011;56133;51.012;-1.648;2022-07-10T05:52:20;12.23;;;7.70;;
53479;SDS011;56133;51.012;-1.648;2022-07-10T05:54:46;11.38;;;7.93;;
53479;SDS011;56133;51.012;-1.648;2022-07-10T05:57:11;12.85;;;9.90;;
53479;SDS011;56133;51.012;-1.648;2022-07-10T05:59:37;8.77;;;6.18;;
53479;SDS011;56133;51.012;-1.648;2022-07-10T06:02:02;10.50;;;6.90;;
53479;SDS011;56133;51.012;-1.648;2022-07-10T06:04:28;8.52;;;7.00;;
53479;SDS011;56133;51.012;-1.648;2022-07-10T06:06:53;11.43;;;7.70;;
53479;SDS011;56133;51.012;-1.648;2022-07-10T06:09:19;11.75;;;8.30;;
53479;SDS011;56133;51.012;-1.648;2022-07-10T06:11:44;13.70;;;8.90;;
53479;SDS011;56133;51.012;-1.648;2022-07-10T06:14:11;13.85;;;10.07;;
53479;SDS011;56133;51.012;-1.648;2022-07-10T06:16:37;22.35;;;17.83;;
53479;SDS011;56133;51.012;-1.648;2022-07-10T06:19:03;24.80;;;19.13;;
53479;SDS011;56133;51.012;-1.648;2022-07-10T06:21:28;28.60;;;21.17;;
53479;SDS011;56133;51.012;-1.648;2022-07-10T06:23:54;26.73;;;20.60;;
53479;SDS011;56133;51.012;-1.648;2022-07-10T06:26:19;24.60;;;19.38;;
53479;SDS011;56133;51.012;-1.648;2022-07-10T06:28:44;24.83;;;18.45;;
53479;SDS011;56133;51.012;-1.648;2022-07-10T06:31:10;22.50;;;18.25;;
53479;SDS011;56133;51.012;-1.648;2022-07-10T06:33:36;20.92;;;16.25;;
53479;SDS011;56133;51.012;-1.648;2022-07-10T06:36:02;23.85;;;17.52;;
53479;SDS011;56133;51.012;-1.648;2022-07-10T06:38:28;23.98;;;17.70;;
53479;SDS011;56133;51.012;-1.648;2022-07-10T06:40:53;18.85;;;15.60;;
53479;SDS011;56133;51.012;-1.648;2022-07-10T06:43:19;20.70;;;15.10;;
53479;SDS011;56133;51.012;-1.648;2022-07-10T06:45:44;20.83;;;15.93;;
53479;SDS011;56133;51.012;-1.648;2022-07-10T06:48:10;15.38;;;11.07;;
53479;SDS011;56133;51.012;-1.648;2022-07-10T06:50:36;13.60;;;10.73;;
53479;SDS011;56133;51.012;-1.648;2022-07-10T06:53:02;12.77;;;9.38;;
53479;SDS011;56133;51.012;-1.648;2022-07-10T06:55:28;11.82;;;8.98;;
53479;SDS011;56133;51.012;-1.648;2022-07-10T06:57:54;14.48;;;9.27;;
53479;SDS011;56133;51.012;-1.648;2022-07-10T07:00:21;13.80;;;9.77;;
53479;SDS011;56133;51.012;-1.648;2022-07-10T07:02:47;12.40;;;8.73;;
53479;SDS011;56133;51.012;-1.648;2022-07-10T07:05:13;14.75;;;11.50;;
53479;SDS011;56133;51.012;-1.648;2022-07-10T07:07:38;15.00;;;10.70;;
53479;SDS011;56133;51.012;-1.648;2022-07-10T07:10:04;14.80;;;9.98;;
53479;SDS011;56133;51.012;-1.648;2022-07-10T07:12:30;14.82;;;10.25;;
53479;SDS011;56133;51.012;-1.648;2022-07-10T07:14:56;13.68;;;9.77;;
53479;SDS011;56133;51.012;-1.648;2022-07-10T07:17:21;14.90;;;10.60;;
53479;SDS011;56133;51.012;-1.648;2022-07-10T07:19:48;15.85;;;11.25;;
53479;SDS011;56133;51.012;-1.648;2022-07-10T07:22:33;12.07;;;9.77;;
53479;SDS011;56133;51.012;-1.648;2022-07-10T07:25:17;12.70;;;8.00;;
53479;SDS011;56133;51.012;-1.648;2022-07-10T07:27:42;11.02;;;7.93;;
53479;SDS011;56133;51.012;-1.648;2022-07-10T07:30:09;10.93;;;7.32;;
53479;SDS011;56133;51.012;-1.648;2022-07-10T07:32:37;8.68;;;6.90;;
53479;SDS011;56133;51.012;-1.648;2022-07-10T07:35:04;8.75;;;7.05;;
53479;SDS011;56133;51.012;-1.648;2022-07-10T07:37:34;9.90;;;7.07;;
53479;SDS011;56133;51.012;-1.648;2022-07-10T07:40:01;8.80;;;6.75;;
53479;SDS011;56133;51.012;-1.648;2022-07-10T07:42:26;7.40;;;5.63;;
53479;SDS011;56133;51.012;-1.648;2022-07-10T07:44:52;9.32;;;6.03;;
53479;SDS011;56133;51.012;-1.648;2022-07-10T07:47:17;7.63;;;5.60;;
53479;SDS011;56133;51.012;-1.648;2022-07-10T07:49:42;6.75;;;4.75;;
53479;SDS011;56133;51.012;-1.648;2022-07-10T07:52:08;7.00;;;4.78;;
53479;SDS011;56133;51.012;-1.648;2022-07-10T07:54:34;8.32;;;4.55;;
53479;SDS011;56133;51.012;-1.648;2022-07-10T07:57:00;7.05;;;4.30;;
53479;SDS011;56133;51.012;-1.648;2022-07-10T07:59:25;7.07;;;5.03;;
53479;SDS011;56133;51.012;-1.648;2022-07-10T08:01:51;8.00;;;5.20;;
53479;SDS011;56133;51.012;-1.648;2022-07-10T08:04:16;9.73;;;5.55;;
53479;SDS011;56133;51.012;-1.648;2022-07-10T08:06:41;7.07;;;5.18;;
53479;SDS011;56133;51.012;-1.648;2022-07-10T08:09:07;5.68;;;5.03;;
53479;SDS011;56133;51.012;-1.648;2022-07-10T08:11:32;7.47;;;4.35;;
53479;SDS011;56133;51.012;-1.648;2022-07-10T08:13:58;6.55;;;4.95;;
53479;SDS011;56133;51.012;-1.648;2022-07-10T08:16:23;5.80;;;4.70;;
53479;SDS011;56133;51.012;-1.648;2022-07-10T08:18:49;5.28;;;4.53;;
53479;SDS011;56133;51.012;-1.648;2022-07-10T08:21:15;7.03;;;4.70;;
53479;SDS011;56133;51.012;-1.648;2022-07-10T08:23:40;5.80;;;4.10;;
53479;SDS011;56133;51.012;-1.648;2022-07-10T08:26:06;6.18;;;4.10;;
53479;SDS011;56133;51.012;-1.648;2022-07-10T08:28:31;6.68;;;4.65;;
53479;SDS011;56133;51.012;-1.648;2022-07-10T08:30:57;5.88;;;3.95;;
53479;SDS011;56133;51.012;-1.648;2022-07-10T08:33:22;6.22;;;3.63;;
53479;SDS011;56133;51.012;-1.648;2022-07-10T08:35:48;4.80;;;3.50;;
53479;SDS011;56133;51.012;-1.648;2022-07-10T08:38:13;5.90;;;3.60;;
53479;SDS011;56133;51.012;-1.648;2022-07-10T08:40:39;5.13;;;3.53;;
53479;SDS011;56133;51.012;-1.648;2022-07-10T08:43:05;4.03;;;3.10;;
53479;SDS011;56133;51.012;-1.648;2022-07-10T08:45:31;2.90;;;2.33;;
53479;SDS011;56133;51.012;-1.648;2022-07-10T08:48:01;2.85;;;1.90;;
53479;SDS011;56133;51.012;-1.648;2022-07-10T08:50:37;3.95;;;2.10;;
53479;SDS011;56133;51.012;-1.648;2022-07-10T08:55:34;3.00;;;1.88;;
53479;SDS011;56133;51.012;-1.648;2022-07-10T08:58:01;2.47;;;1.83;;
53479;SDS011;56133;51.012;-1.648;2022-07-10T09:00:29;1.98;;;1.70;;
53479;SDS011;56133;51.012;-1.648;2022-07-10T09:02:55;2.65;;;1.60;;
53479;SDS011;56133;51.012;-1.648;2022-07-10T09:05:21;3.10;;;1.70;;
53479;SDS011;56133;51.012;-1.648;2022-07-10T09:07:48;2.08;;;1.40;;
53479;SDS011;56133;51.012;-1.648;2022-07-10T09:10:13;2.63;;;1.40;;
53479;SDS011;56133;51.012;-1.648;2022-07-10T09:15:24;2.50;;;1.60;;
53479;SDS011;56133;51.012;-1.648;2022-07-10T09:18:01;3.30;;;1.60;;
53479;SDS011;56133;51.012;-1.648;2022-07-10T09:20:34;2.75;;;1.50;;
53479;SDS011;56133;51.012;-1.648;2022-07-10T09:23:17;3.38;;;1.45;;
53479;SDS011;56133;51.012;-1.648;2022-07-10T09:25:49;1.95;;;1.77;;
53479;SDS011;56133;51.012;-1.648;2022-07-10T09:28:17;2.95;;;1.55;;
53479;SDS011;56133;51.012;-1.648;2022-07-10T09:30:44;2.97;;;1.50;;
53479;SDS011;56133;51.012;-1.648;2022-07-10T09:33:23;3.58;;;1.38;;
53479;SDS011;56133;51.012;-1.648;2022-07-10T09:38:47;3.03;;;1.50;;
53479;SDS011;56133;51.012;-1.648;2022-07-10T09:43:47;1.90;;;1.42;;
53479;SDS011;56133;51.012;-1.648;2022-07-10T09:46:14;2.97;;;1.50;;
53479;SDS011;56133;51.012;-1.648;2022-07-10T09:48:41;1.70;;;1.40;;
53479;SDS011;56133;51.012;-1.648;2022-07-10T09:51:07;1.48;;;1.10;;
53479;SDS011;56133;51.012;-1.648;2022-07-10T09:53:38;1.25;;;1.13;;
53479;SDS011;56133;51.012;-1.648;2022-07-10T09:56:06;1.55;;;1.40;;
53479;SDS011;56133;51.012;-1.648;2022-07-10T09:58:33;2.38;;;1.48;;
53479;SDS011;56133;51.012;-1.648;2022-07-10T10:01:01;6.32;;;1.63;;
53479;SDS011;56133;51.012;-1.648;2022-07-10T10:03:28;4.55;;;1.77;;
53479;SDS011;56133;51.012;-1.648;2022-07-10T10:06:00;2.55;;;1.40;;
53479;SDS011;56133;51.012;-1.648;2022-07-10T10:09:18;2.42;;;1.30;;
53479;SDS011;56133;51.012;-1.648;2022-07-10T10:11:21;2.95;;;1.63;;
53479;SDS011;56133;51.012;-1.648;2022-07-10T10:13:51;2.92;;;1.17;;
53479;SDS011;56133;51.012;-1.648;2022-07-10T10:16:18;2.70;;;1.55;;
53479;SDS011;56133;51.012;-1.648;2022-07-10T10:18:44;1.92;;;1.50;;
53479;SDS011;56133;51.012;-1.648;2022-07-10T10:21:29;1.73;;;1.63;;
53479;SDS011;56133;51.012;-1.648;2022-07-10T10:23:55;2.95;;;1.30;;
53479;SDS011;56133;51.012;-1.648;2022-07-10T10:26:21;2.45;;;1.60;;
53479;SDS011;56133;51.012;-1.648;2022-07-10T10:28:50;3.42;;;1.65;;
53479;SDS011;56133;51.012;-1.648;2022-07-10T10:31:17;1.50;;;1.30;;
53479;SDS011;56133;51.012;-1.648;2022-07-10T10:33:44;2.72;;;1.58;;
53479;SDS011;56133;51.012;-1.648;2022-07-10T10:36:13;2.17;;;1.50;;
53479;SDS011;56133;51.012;-1.648;2022-07-10T10:41:30;2.42;;;1.38;;
53479;SDS011;56133;51.012;-1.648;2022-07-10T10:49:23;2.80;;;1.48;;
53479;SDS011;56133;51.012;-1.648;2022-07-10T10:52:09;2.55;;;1.00;;
53479;SDS011;56133;51.012;-1.648;2022-07-10T10:57:43;1.85;;;1.15;;
53479;SDS011;56133;51.012;-1.648;2022-07-10T11:00:29;1.87;;;1.33;;
53479;SDS011;56133;51.012;-1.648;2022-07-10T11:03:12;1.80;;;1.52;;
53479;SDS011;56133;51.012;-1.648;2022-07-10T11:05:41;4.47;;;1.33;;
53479;SDS011;56133;51.012;-1.648;2022-07-10T11:08:08;1.95;;;1.00;;
53479;SDS011;56133;51.012;-1.648;2022-07-10T11:10:41;2.08;;;1.10;;
53479;SDS011;56133;51.012;-1.648;2022-07-10T11:13:17;3.80;;;1.60;;
53479;SDS011;56133;51.012;-1.648;2022-07-10T11:20:44;2.38;;;1.23;;
53479;SDS011;56133;51.012;-1.648;2022-07-10T11:28:34;1.30;;;1.15;;
53479;SDS011;56133;51.012;-1.648;2022-07-10T11:31:08;1.80;;;1.05;;
53479;SDS011;56133;51.012;-1.648;2022-07-10T11:33:40;2.53;;;1.17;;
53479;SDS011;56133;51.012;-1.648;2022-07-10T11:36:09;1.63;;;1.15;;
53479;SDS011;56133;51.012;-1.648;2022-07-10T11:38:38;2.50;;;1.55;;
53479;SDS011;56133;51.012;-1.648;2022-07-10T11:41:11;3.00;;;1.15;;
53479;SDS011;56133;51.012;-1.648;2022-07-10T11:43:54;5.57;;;1.77;;
53479;SDS011;56133;51.012;-1.648;2022-07-10T11:46:23;1.30;;;1.20;;
53479;SDS011;56133;51.012;-1.648;2022-07-10T11:48:50;2.30;;;1.25;;
53479;SDS011;56133;51.012;-1.648;2022-07-10T11:51:18;1.80;;;1.27;;
53479;SDS011;56133;51.012;-1.648;2022-07-10T11:56:31;3.28;;;1.10;;
53479;SDS011;56133;51.012;-1.648;2022-07-10T11:59:11;2.50;;;1.30;;
53479;SDS011;56133;51.012;-1.648;2022-07-10T12:01:42;3.60;;;1.33;;
53479;SDS011;56133;51.012;-1.648;2022-07-10T12:06:41;2.53;;;1.17;;
53479;SDS011;56133;51.012;-1.648;2022-07-10T12:09:09;2.03;;;1.17;;
53479;SDS011;56133;51.012;-1.648;2022-07-10T12:11:38;1.98;;;1.20;;
53479;SDS011;56133;51.012;-1.648;2022-07-10T12:14:11;2.08;;;0.88;;
53479;SDS011;56133;51.012;-1.648;2022-07-10T12:16:48;1.77;;;1.20;;
53479;SDS011;56133;51.012;-1.648;2022-07-10T12:19:17;1.33;;;1.05;;
53479;SDS011;56133;51.012;-1.648;2022-07-10T12:21:45;2.15;;;1.00;;
53479;SDS011;56133;51.012;-1.648;2022-07-10T12:24:18;2.40;;;1.27;;
53479;SDS011;56133;51.012;-1.648;2022-07-10T12:26:47;1.95;;;1.23;;
53479;SDS011;56133;51.012;-1.648;2022-07-10T12:29:20;3.05;;;1.40;;
53479;SDS011;56133;51.012;-1.648;2022-07-10T12:31:49;3.05;;;1.10;;
53479;SDS011;56133;51.012;-1.648;2022-07-10T12:34:17;1.75;;;1.40;;
53479;SDS011;56133;51.012;-1.648;2022-07-10T12:39:12;2.08;;;1.23;;
53479;SDS011;56133;51.012;-1.648;2022-07-10T12:41:55;2.55;;;1.40;;
53479;SDS011;56133;51.012;-1.648;2022-07-10T12:44:36;1.73;;;1.10;;
53479;SDS011;56133;51.012;-1.648;2022-07-10T12:47:10;1.35;;;1.00;;
53479;SDS011;56133;51.012;-1.648;2022-07-10T12:49:55;1.33;;;1.05;;
53479;SDS011;56133;51.012;-1.648;2022-07-10T12:57:54;3.55;;;1.10;;
53479;SDS011;56133;51.012;-1.648;2022-07-10T13:00:28;1.67;;;0.93;;
53479;SDS011;56133;51.012;-1.648;2022-07-10T13:02:57;2.20;;;0.82;;
53479;SDS011;56133;51.012;-1.648;2022-07-10T13:05:28;1.30;;;1.00;;
53479;SDS011;56133;51.012;-1.648;2022-07-10T13:10:42;2.47;;;1.30;;
53479;SDS011;56133;51.012;-1.648;2022-07-10T13:13:09;1.73;;;1.00;;
53479;SDS011;56133;51.012;-1.648;2022-07-10T13:15:35;1.33;;;1.00;;
53479;SDS011;56133;51.012;-1.648;2022-07-10T13:18:12;2.38;;;1.05;;
53479;SDS011;56133;51.012;-1.648;2022-07-10T13:20:43;1.25;;;1.00;;
53479;SDS011;56133;51.012;-1.648;2022-07-10T13:23:08;1.23;;;1.08;;
53479;SDS011;56133;51.012;-1.648;2022-07-10T13:25:34;1.60;;;1.00;;
53479;SDS011;56133;51.012;-1.648;2022-07-10T13:28:01;1.38;;;0.90;;
53479;SDS011;56133;51.012;-1.648;2022-07-10T13:30:27;2.85;;;1.10;;
53479;SDS011;56133;51.012;-1.648;2022-07-10T13:32:53;4.13;;;1.20;;
53479;SDS011;56133;51.012;-1.648;2022-07-10T13:35:19;2.00;;;1.00;;
53479;SDS011;56133;51.012;-1.648;2022-07-10T13:37:45;3.17;;;1.15;;
53479;SDS011;56133;51.012;-1.648;2022-07-10T13:40:11;2.60;;;1.02;;
53479;SDS011;56133;51.012;-1.648;2022-07-10T13:42:37;2.40;;;1.00;;
53479;SDS011;56133;51.012;-1.648;2022-07-10T13:45:02;1.40;;;1.23;;
53479;SDS011;56133;51.012;-1.648;2022-07-10T13:47:28;2.65;;;1.20;;
53479;SDS011;56133;51.012;-1.648;2022-07-10T13:49:54;3.30;;;1.00;;
53479;SDS011;56133;51.012;-1.648;2022-07-10T13:52:19;3.90;;;1.00;;
53479;SDS011;56133;51.012;-1.648;2022-07-10T13:54:44;3.72;;;1.15;;
53479;SDS011;56133;51.012;-1.648;2022-07-10T13:57:10;1.90;;;0.98;;
53479;SDS011;56133;51.012;-1.648;2022-07-10T13:59:35;1.38;;;0.90;;
53479;SDS011;56133;51.012;-1.648;2022-07-10T14:02:01;1.27;;;1.05;;
53479;SDS011;56133;51.012;-1.648;2022-07-10T14:04:26;2.08;;;1.05;;
53479;SDS011;56133;51.012;-1.648;2022-07-10T14:06:52;1.42;;;0.90;;
53479;SDS011;56133;51.012;-1.648;2022-07-10T14:09:17;2.05;;;1.00;;
53479;SDS011;56133;51.012;-1.648;2022-07-10T14:11:43;2.25;;;1.00;;
53479;SDS011;56133;51.012;-1.648;2022-07-10T14:14:09;1.30;;;1.05;;
53479;SDS011;56133;51.012;-1.648;2022-07-10T14:16:36;1.40;;;1.10;;
53479;SDS011;56133;51.012;-1.648;2022-07-10T14:19:01;1.30;;;0.95;;
53479;SDS011;56133;51.012;-1.648;2022-07-10T14:21:27;2.83;;;0.88;;
53479;SDS011;56133;51.012;-1.648;2022-07-10T14:23:53;1.45;;;1.00;;
53479;SDS011;56133;51.012;-1.648;2022-07-10T14:26:21;1.50;;;0.95;;
53479;SDS011;56133;51.012;-1.648;2022-07-10T14:28:47;1.85;;;1.08;;
53479;SDS011;56133;51.012;-1.648;2022-07-10T14:31:13;2.30;;;0.93;;
53479;SDS011;56133;51.012;-1.648;2022-07-10T14:33:38;1.75;;;1.08;;
53479;SDS011;56133;51.012;-1.648;2022-07-10T14:36:04;3.83;;;1.25;;
53479;SDS011;56133;51.012;-1.648;2022-07-10T14:38:30;2.15;;;1.25;;
53479;SDS011;56133;51.012;-1.648;2022-07-10T14:40:55;1.67;;;0.88;;
53479;SDS011;56133;51.012;-1.648;2022-07-10T14:43:21;3.10;;;1.00;;
53479;SDS011;56133;51.012;-1.648;2022-07-10T14:45:47;2.40;;;1.08;;
53479;SDS011;56133;51.012;-1.648;2022-07-10T14:48:13;3.10;;;1.00;;
53479;SDS011;56133;51.012;-1.648;2022-07-10T14:50:38;1.45;;;0.90;;
53479;SDS011;56133;51.012;-1.648;2022-07-10T14:53:05;2.22;;;1.00;;
53479;SDS011;56133;51.012;-1.648;2022-07-10T14:55:31;1.85;;;1.00;;
53479;SDS011;56133;51.012;-1.648;2022-07-10T14:57:56;2.88;;;1.10;;
53479;SDS011;56133;51.012;-1.648;2022-07-10T15:00:22;2.20;;;1.10;;
53479;SDS011;56133;51.012;-1.648;2022-07-10T15:02:47;2.33;;;1.10;;
53479;SDS011;56133;51.012;-1.648;2022-07-10T15:05:13;3.10;;;1.10;;
53479;SDS011;56133;51.012;-1.648;2022-07-10T15:07:39;2.28;;;1.00;;
53479;SDS011;56133;51.012;-1.648;2022-07-10T15:10:04;2.00;;;1.00;;
53479;SDS011;56133;51.012;-1.648;2022-07-10T15:12:30;3.72;;;1.05;;
53479;SDS011;56133;51.012;-1.648;2022-07-10T15:14:57;1.73;;;1.05;;
53479;SDS011;56133;51.012;-1.648;2022-07-10T15:17:22;2.47;;;1.10;;
53479;SDS011;56133;51.012;-1.648;2022-07-10T15:19:48;2.22;;;1.20;;